• Join FlightAware (Why Join?)
  • Login
  • US Flag 
Rudolph Flight #1: Arrived! 
04:42AM EST


 

Airport Tracker/Info


-or-


 

Live Flight TrackerFlight Track Log ✈ N822NN ✈ 21-May-2012 ✈ KLGA - KDFW

Flight Track Log - Related Links

Times and Time Zones

All times are in EDT time to prevent confusion due to time zone crossing. See the N822NN flight status page for this flight to view local times or setup timezone preferences in your user account.

Time Position Orientation Groundspeed Altitude Reporting Facility
EDT Latitude Longitude Course Direction KTS MPH feet Rate Location/Type
04:49PM 40.7667 -73.9493 85° East  Level FlightAware Approximate
04:51PM 40.7779 -73.7901 320° Northwest 273 314 3,800  Level FlightAware ADS-B
04:51PM 40.8005 -73.8154 307° West 280 322 5,100 3,300 Climbing FlightAware ADS-B
04:51PM 40.8053 -73.8238 306° West 282 325 5,400 3,000 Climbing FlightAware ADS-B
04:52PM 40.8178 -73.8469 306° West 283 326 6,200 2,760 Climbing FlightAware ADS-B
04:52PM 40.8300 -73.8694 305° West 283 326 6,900 2,760 Climbing FlightAware ADS-B
04:52PM 40.8412 -73.8902 298° West 298 343 7,600 2,820 Climbing FlightAware ADS-B
04:52PM 40.8468 -73.9044 278° West 300 345 8,000 2,520 Climbing FlightAware ADS-B
04:52PM 40.8502 -73.9363 271° West 303 349 8,700 2,580 Climbing FlightAware ADS-B
04:53PM 40.8506 -73.9634 270° West 307 353 9,400 2,580 Climbing FlightAware ADS-B
04:53PM 40.8506 -73.9652 270° West 307 353 9,400 3,000 Level FlightAware ADS-B
04:53PM 40.8506 -73.9866 268° West 309 356 10,000 1,920 Climbing FlightAware ADS-B
04:53PM 40.8498 -74.0257 266° West 332 382 10,400 1,020 Climbing FlightAware ADS-B
04:53PM 40.8495 -74.0320 267° West 336 387 10,400 960 Level FlightAware ADS-B
04:54PM 40.8469 -74.0931 267° West 370 426 10,900 1,080 Climbing FlightAware ADS-B
04:54PM 40.8443 -74.1688 267° West 408 470 11,500 2,280 Climbing FlightAware ADS-B
04:55PM 40.8417 -74.2446 267° West 407 468 13,300 3,240 Climbing FlightAware ADS-B
04:55PM 40.8387 -74.3208 267° West 406 467 14,800 2,520 Climbing FlightAware ADS-B
04:56PM 40.8357 -74.3965 267° West 415 478 15,900 1,920 Climbing FlightAware ADS-B
04:56PM 40.8323 -74.4736 267° West 420 483 16,800 960 Climbing FlightAware ADS-B
04:57PM 40.8289 -74.5520 267° West 425 489 16,900 60 Climbing FlightAware ADS-B
04:57PM 40.8259 -74.6350 267° West 424 488 16,900  Level FlightAware ADS-B
04:58PM 40.8223 -74.7141 266° West 421 484 16,900  Level FlightAware ADS-B
04:58PM 40.8184 -74.7942 266° West 421 484 16,900 960 Level FlightAware ADS-B
04:59PM 40.8146 -74.8723 266° West 424 488 17,900 2,220 Climbing FlightAware ADS-B
04:59PM 40.8109 -74.9500 267° West 425 489 19,200 2,400 Climbing FlightAware ADS-B
05:00PM 40.8068 -75.0391 266° West 429 494 20,500 2,040 Climbing FlightAware ADS-B
05:00PM 40.8032 -75.1112 260° West 436 502 21,300 1,740 Climbing FlightAware ADS-B
05:01PM 40.7929 -75.1922 259° West 441 507 22,200 2,340 Climbing FlightAware ADS-B
05:01PM 40.7814 -75.2712 259° West 432 497 23,700 2,460 Climbing FlightAware ADS-B
05:02PM 40.7722 -75.3347 255° West 431 496 24,500 1,800 Climbing FlightAware ADS-B
05:02PM 40.7627 -75.3809 250° West 433 498 25,000 1,740 Climbing FlightAware ADS-B
05:02PM 40.7571 -75.4014 247° West 434 499 25,300 1,620 Climbing FlightAware ADS-B
05:02PM 40.7502 -75.4231 244° Southwest 434 499 25,500 1,500 Climbing FlightAware ADS-B
05:03PM 40.7224 -75.4980 244° Southwest 438 504 26,300 1,620 Climbing FlightAware ADS-B
05:03PM 40.6947 -75.5722 244° Southwest 439 505 27,200 1,620 Climbing FlightAware ADS-B
05:04PM 40.6666 -75.6472 244° Southwest 433 498 28,000 720 Climbing FlightAware ADS-B
05:05PM 40.6396 -75.7191 244° Southwest 428 493 28,000  Level FlightAware ADS-B
05:05PM 40.6118 -75.7932 243° Southwest 428 493 28,000  Level FlightAware ADS-B
05:06PM 40.5849 -75.8641 243° Southwest 429 494 28,000 660 Level FlightAware ADS-B
05:06PM 40.5574 -75.9359 243° Southwest 431 496 28,700 1,320 Climbing FlightAware ADS-B
05:07PM 40.5297 -76.0083 243° Southwest 434 499 29,400 1,260 Climbing FlightAware ADS-B
05:07PM 40.5000 -76.0862 243° Southwest 436 502 30,100 1,200 Climbing FlightAware ADS-B
05:08PM 40.4720 -76.1593 243° Southwest 440 506 30,700 1,140 Climbing FlightAware ADS-B
05:08PM 40.4376 -76.2488 243° Southwest 443 510 31,400 1,140 Climbing FlightAware ADS-B
05:09PM 40.4098 -76.3212 243° Southwest 444 511 32,000 960 Climbing FlightAware ADS-B
05:09PM 40.3782 -76.4034 243° Southwest 450 518 32,500 900 Climbing FlightAware ADS-B
05:10PM 40.3486 -76.4796 243° Southwest 454 522 33,000 1,140 Climbing FlightAware ADS-B
05:10PM 40.3191 -76.5545 242° Southwest 452 520 33,700 1,200 Climbing FlightAware ADS-B
05:11PM 40.2877 -76.6324 242° Southwest 451 519 34,300 1,020 Climbing FlightAware ADS-B
05:11PM 40.2584 -76.7053 242° Southwest 452 520 34,800 960 Climbing FlightAware ADS-B
05:12PM 40.2114 -76.8224 242° Southwest 452 520 35,600 840 Climbing FlightAware ADS-B
05:13PM 40.1780 -76.9048 242° Southwest 451 519 36,000 360 Climbing FlightAware ADS-B
05:13PM 40.1489 -76.9767 246° West 453 521 36,000  Level FlightAware ADS-B
05:13PM 40.1426 -76.9949 252° West 454 522 36,000  Level FlightAware ADS-B
05:14PM 40.1318 -77.0392 260° West 459 528 36,000  Level FlightAware ADS-B
05:14PM 40.1273 -77.0723 268° West 461 531 36,000  Level FlightAware ADS-B
05:14PM 40.1252 -77.1585 269° West 466 536 36,000  Level FlightAware ADS-B
05:15PM 40.1240 -77.2477 269° West 468 539 36,000  Level FlightAware ADS-B
05:16PM 40.1218 -77.3831 269° West 470 541 36,000  Level FlightAware ADS-B
05:16PM 40.1202 -77.4884 269° West 470 541 36,000  Level FlightAware ADS-B
05:17PM 40.1185 -77.5871 269° West 470 541 36,000  Level FlightAware ADS-B
05:18PM 40.1165 -77.7080 269° West 470 541 36,000  Level FlightAware ADS-B
05:18PM 40.1149 -77.7985 269° West 470 541 36,000  Level FlightAware ADS-B
05:19PM 40.1129 -77.8965 268° West 468 539 36,000  Level FlightAware ADS-B
05:19PM 40.1111 -77.9825 268° West 467 537 36,000  Level FlightAware ADS-B
05:20PM 40.1087 -78.0970 268° West 464 534 36,000  Level FlightAware ADS-B
05:21PM 40.1060 -78.2111 268° West 456 525 36,000  Level FlightAware ADS-B
05:22PM 40.1014 -78.3978 267° West 455 524 36,000  Level FlightAware ADS-B
05:22PM 40.0978 -78.4769 268° West 464 534 36,100 600 Climbing Cleveland Center
05:23PM 40.0922 -78.6400 246° West 459 528 37,000 420 Climbing Cleveland Center
05:24PM 40.0425 -78.7853 246° West 442 509 37,000  Level Cleveland Center
05:25PM 39.9928 -78.9300 246° West 442 509 37,000 300 Level Cleveland Center
05:26PM 39.9406 -79.0858 246° West 436 502 37,700 480 Climbing Cleveland Center
05:27PM 39.8903 -79.2303 244° Southwest 441 507 38,000 120 Climbing Cleveland Center
05:28PM 39.8356 -79.3772 246° West 446 513 38,000  Level Cleveland Center
05:29PM 39.7869 -79.5214 244° Southwest 446 513 38,000  Level Cleveland Center
05:30PM 39.7319 -79.6653 244° Southwest 446 513 38,000  Level Cleveland Center
05:31PM 39.6789 -79.8089 248° West 446 513 38,000  Level Cleveland Center
05:32PM 39.6319 -79.9578 256° West 446 513 38,000  Level Cleveland Center
05:37PM 39.5078 -80.6128 246° West 459 528 38,000  Level Indianapolis Center
05:38PM 39.4572 -80.7628 246° West 459 528 38,000  Level Indianapolis Center
05:39PM 39.4064 -80.9100 245° Southwest 454 522 38,000  Level Indianapolis Center
05:40PM 39.3553 -81.0542 246° West 454 522 38,000  Level Indianapolis Center
05:41PM 39.3042 -81.2036 245° Southwest 454 522 38,000  Level Indianapolis Center
05:42PM 39.2528 -81.3475 246° West 454 522 38,000  Level Indianapolis Center
05:43PM 39.2031 -81.4936 246° West 448 516 38,000  Level Indianapolis Center
05:44PM 39.1514 -81.6397 245° Southwest 448 516 38,000  Level Indianapolis Center
05:45PM 39.0994 -81.7831 245° Southwest 448 516 38,000  Level Indianapolis Center
05:46PM 39.0472 -81.9261 245° Southwest 448 516 38,000  Level Indianapolis Center
05:47PM 38.9950 -82.0689 246° West 448 516 38,000  Level Indianapolis Center
05:48PM 38.9444 -82.2114 245° Southwest 448 516 38,000  Level Indianapolis Center
05:49PM 38.8919 -82.3536 244° Southwest 448 516 38,000  Level Indianapolis Center
05:50PM 38.8389 -82.4933 245° Southwest 443 510 38,000  Level Indianapolis Center
05:51PM 38.7758 -82.6647 246° West 443 510 38,000  Level Indianapolis Center
05:52PM 38.7267 -82.8036 243° Southwest 443 510 38,000  Level Indianapolis Center
05:53PM 38.6653 -82.9604 244° Southwest 434 499 38,000  Level FlightAware ADS-B
05:55PM 38.5780 -83.1936 245° Southwest 435 501 38,000  Level FlightAware ADS-B
05:55PM 38.5639 -83.2331 244° Southwest 443 510 38,000  Level Indianapolis Center
05:56PM 38.4963 -83.4106 245° Southwest 436 502 38,000  Level FlightAware ADS-B
05:57PM 38.4600 -83.5092 244° Southwest 443 510 38,000  Level Indianapolis Center
05:59PM 38.3627 -83.7612 244° Southwest 433 498 38,000  Level FlightAware ADS-B
05:59PM 38.3361 -83.8310 244° Southwest 433 498 38,000  Level FlightAware ADS-B
06:00PM 38.2941 -83.9398 244° Southwest 434 499 38,000  Level FlightAware ADS-B
06:01PM 38.2429 -84.0725 244° Southwest 436 502 38,000  Level FlightAware ADS-B
06:02PM 38.2127 -84.1508 244° Southwest 436 502 38,000  Level FlightAware ADS-B
06:02PM 38.1848 -84.2228 244° Southwest 435 501 38,000  Level FlightAware ADS-B
06:03PM 38.1402 -84.3372 244° Southwest 433 498 38,000  Level FlightAware ADS-B
06:03PM 38.1127 -84.4074 244° Southwest 431 496 38,000  Level FlightAware ADS-B
06:04PM 38.0816 -84.4867 244° Southwest 431 496 38,000  Level FlightAware ADS-B
06:05PM 38.0541 -84.5570 244° Southwest 431 496 38,000  Level FlightAware ADS-B
06:05PM 38.0271 -84.6258 243° Southwest 430 495 38,000  Level FlightAware ADS-B
06:06PM 38.0000 -84.6947 243° Southwest 431 496 38,000  Level FlightAware ADS-B
06:06PM 37.9734 -84.7623 243° Southwest 431 496 38,000  Level FlightAware ADS-B
06:07PM 37.9425 -84.8404 243° Southwest 430 495 38,000  Level FlightAware ADS-B
06:07PM 37.9160 -84.9069 243° Southwest 428 493 38,000  Level FlightAware ADS-B
06:08PM 37.8879 -84.9777 243° Southwest 428 493 38,000  Level FlightAware ADS-B
06:08PM 37.8604 -85.0462 243° Southwest 426 490 38,000  Level FlightAware ADS-B
06:09PM 37.8341 -85.1120 243° Southwest 425 489 38,000  Level FlightAware ADS-B
06:09PM 37.8074 -85.1789 243° Southwest 424 488 38,000  Level FlightAware ADS-B
06:10PM 37.7828 -85.2401 243° Southwest 423 487 38,000  Level FlightAware ADS-B
06:10PM 37.7450 -85.3343 243° Southwest 424 488 38,000  Level FlightAware ADS-B
06:11PM 37.7170 -85.4039 243° Southwest 423 487 38,000  Level FlightAware ADS-B
06:11PM 37.7016 -85.4421 243° Southwest 423 487 38,000  Level FlightAware ADS-B
06:12PM 37.6759 -85.5055 243° Southwest 423 487 38,000  Level FlightAware ADS-B
06:12PM 37.6556 -85.5556 243° Southwest 423 487 38,000  Level FlightAware ADS-B
06:13PM 37.6202 -85.6425 243° Southwest 424 488 38,000  Level FlightAware ADS-B
06:13PM 37.5996 -85.6931 243° Southwest 423 487 38,000  Level FlightAware ADS-B
06:14PM 37.5893 -85.7184 243° Southwest 423 487 38,000  Level FlightAware ADS-B
06:14PM 37.5734 -85.7573 243° Southwest 424 488 38,000  Level FlightAware ADS-B
06:15PM 37.5467 -85.8229 243° Southwest 426 490 38,000  Level FlightAware ADS-B
06:15PM 37.5088 -85.9154 243° Southwest 427 491 38,000  Level FlightAware ADS-B
06:16PM 37.4656 -86.0208 243° Southwest 422 486 38,000  Level FlightAware ADS-B
06:16PM 37.4376 -86.0886 243° Southwest 423 487 38,000  Level FlightAware ADS-B
06:17PM 37.4099 -86.1559 242° Southwest 421 484 38,000  Level FlightAware ADS-B
06:17PM 37.3694 -86.2535 242° Southwest 418 481 38,000  Level FlightAware ADS-B
06:18PM 37.3394 -86.3258 242° Southwest 419 482 38,000  Level FlightAware ADS-B
06:18PM 37.3114 -86.3930 242° Southwest 421 484 38,000  Level FlightAware ADS-B
06:19PM 37.2742 -86.4823 242° Southwest 422 486 38,000  Level FlightAware ADS-B
06:20PM 37.2384 -86.5681 242° Southwest 423 487 38,000  Level FlightAware ADS-B
06:20PM 37.2111 -86.6334 242° Southwest 423 487 38,000  Level FlightAware ADS-B
06:21PM 37.1825 -86.7013 242° Southwest 422 486 38,000  Level FlightAware ADS-B
06:22PM 37.1249 -86.8375 242° Southwest 424 488 38,000  Level FlightAware ADS-B
06:23PM 37.0772 -86.9507 242° Southwest 425 489 38,000  Level FlightAware ADS-B
06:23PM 37.0669 -86.9747 242° Southwest 425 489 38,000  Level Memphis Center
06:24PM 36.9924 -87.1508 243° Southwest 425 489 38,000  Level FlightAware ADS-B
06:25PM 36.9592 -87.2311 242° Southwest 425 489 38,000  Level Memphis Center
06:26PM 36.9061 -87.3578 241° Southwest 425 489 38,000  Level Memphis Center
06:27PM 36.8567 -87.4711 243° Southwest 420 483 38,000  Level Memphis Center
06:28PM 36.8033 -87.6000 240° Southwest 426 490 38,000  Level Memphis Center
06:29PM 36.7456 -87.7261 241° Southwest 426 490 38,000  Level Memphis Center
06:30PM 36.6897 -87.8522 242° Southwest 421 484 38,000  Level Memphis Center
06:31PM 36.6339 -87.9833 242° Southwest 426 490 38,000  Level Memphis Center
06:32PM 36.5781 -88.1114 242° Southwest 426 490 38,000  Level Memphis Center
06:33PM 36.5158 -88.2553 241° Southwest 426 490 38,000  Level Memphis Center
06:34PM 36.4556 -88.3908 240° Southwest 439 505 38,000  Level Memphis Center
06:35PM 36.3950 -88.5214 241° Southwest 439 505 38,000  Level Memphis Center
06:36PM 36.3344 -88.6567 241° Southwest 444 511 38,000  Level Memphis Center
06:37PM 36.2739 -88.7944 240° Southwest 444 511 38,000  Level Memphis Center
06:38PM 36.2128 -88.9267 240° Southwest 444 511 38,000  Level Memphis Center
06:39PM 36.1497 -89.0614 240° Southwest 444 511 38,000  Level Memphis Center
06:40PM 36.0864 -89.1961 241° Southwest 449 517 38,000  Level Memphis Center
06:41PM 36.0272 -89.3303 241° Southwest 449 517 38,000  Level Memphis Center
06:42PM 35.9656 -89.4669 241° Southwest 449 517 38,000  Level Memphis Center
06:43PM 35.9122 -89.5856 241° Southwest 449 517 38,000  Level Memphis Center
06:44PM 35.8525 -89.7167 240° Southwest 449 517 38,000  Level Memphis Center
06:45PM 35.7906 -89.8478 241° Southwest 449 517 38,000  Level Memphis Center
06:46PM 35.7306 -89.9786 242° Southwest 449 517 38,000  Level Memphis Center
06:47PM 35.6706 -90.1194 240° Southwest 437 503 38,000  Level Memphis Center
06:48PM 35.6081 -90.2550 240° Southwest 442 509 38,000  Level Memphis Center
06:49PM 35.5475 -90.3850 240° Southwest 442 509 38,000  Level Memphis Center
06:50PM 35.4850 -90.5178 237° Southwest 442 509 38,000  Level Memphis Center
06:51PM 35.4200 -90.6425 227° Southwest 442 509 38,000  Level Memphis Center
06:52PM 35.3342 -90.7567 227° Southwest 456 525 38,000  Level Memphis Center
06:53PM 35.2483 -90.8706 227° Southwest 456 525 38,000  Level Memphis Center
06:54PM 35.1644 -90.9819 227° Southwest 456 525 38,000  Level Memphis Center
06:55PM 35.0783 -91.0956 228° Southwest 456 525 38,000  Level Memphis Center
06:56PM 35.0025 -91.1989 245° Southwest 456 525 38,000  Level Memphis Center
06:57PM 34.9514 -91.3350 248° West 455 524 38,000  Level Memphis Center
06:58PM 34.9022 -91.4839 250° West 448 516 38,100  Climbing Memphis Center
06:59PM 34.8633 -91.6125 247° West 448 516 38,000 -60 Descending Memphis Center
07:00PM 34.8117 -91.7633 248° West 448 516 38,000  Level Memphis Center
07:01PM 34.7664 -91.9017 249° West 448 516 38,000  Level Memphis Center
07:02PM 34.7272 -92.0247 248° West 448 516 38,000  Level Memphis Center
07:03PM 34.6814 -92.1628 252° West 448 516 38,000  Level Memphis Center
07:04PM 34.6439 -92.3008 253° West 448 516 38,000  Level Memphis Center
07:05PM 34.6061 -92.4464 253° West 448 516 38,000  Level Memphis Center
07:06PM 34.5703 -92.5867 252° West 442 509 38,000  Level Memphis Center
07:07PM 34.5300 -92.7344 251° West 442 509 38,000  Level Memphis Center
07:08PM 34.4917 -92.8719 253° West 442 509 38,000  Level Memphis Center
07:09PM 34.4553 -93.0169 252° West 447 514 38,000  Level Memphis Center
07:10PM 34.4147 -93.1642 252° West 447 514 38,000  Level Memphis Center
07:11PM 34.3781 -93.2989 254° West 442 509 38,000  Level Memphis Center
07:11PM 34.3572 -93.3886 252° West 441 507 38,000  Level Fort Worth Center
07:12PM 34.3197 -93.5286 251° West 446 513 38,000  Level Fort Worth Center
07:13PM 34.2822 -93.6636 252° West 441 507 38,000  Level Fort Worth Center
07:14PM 34.2444 -93.8033 251° West 441 507 38,000  Level Fort Worth Center
07:15PM 34.2067 -93.9381 251° West 434 499 38,000  Level Fort Worth Center
07:16PM 34.1667 -94.0750 252° West 429 494 38,000  Level Fort Worth Center
07:17PM 34.1306 -94.2119 250° West 429 494 38,000  Level Fort Worth Center
07:18PM 34.0881 -94.3514 253° West 436 502 38,000  Level Fort Worth Center
07:19PM 34.0539 -94.4881 250° West 436 502 38,000 -60 Level Fort Worth Center
07:20PM 34.0092 -94.6322 248° West 443 510 37,900 -720 Descending Fort Worth Center
07:21PM 33.9639 -94.7667 248° West 443 510 36,600 -1,560 Descending Fort Worth Center
07:22PM 33.9167 -94.9056 248° West 448 516 34,800 -1,800 Descending Fort Worth Center
07:23PM 33.8694 -95.0469 247° West 454 522 33,100 -1,740 Descending Fort Worth Center
07:24PM 33.8197 -95.1883 247° West 462 532 31,400 -1,740 Descending Fort Worth Center
07:25PM 33.7700 -95.3319 248° West 462 532 29,700 -1,560 Descending Fort Worth Center
07:26PM 33.7203 -95.4781 249° West 467 537 28,300 -1,260 Descending Fort Worth Center
07:27PM 33.6803 -95.6064 248° West 467 537 27,200 -1,260 Descending Fort Worth Center
07:28PM 33.6303 -95.7519 247° West 467 537 25,800 -1,680 Descending Fort Worth Center
07:29PM 33.5797 -95.8950 246° West 467 537 23,900 -1,920 Descending Fort Worth Center
07:30PM 33.5253 -96.0431 251° West 455 524 22,000 -1,500 Descending Fort Worth Center
07:32PM 33.4847 -96.1864 246° West 428 493 20,900 -1,800 Descending FAA TRACON SMA TRACON (SMA)
07:32PM 33.4556 -96.2667 246° West 431 496 19,000 -2,820 Descending FAA TRACON SMA TRACON (SMA)
07:33PM 33.4219 -96.3558 236° Southwest 424 488 17,200 -2,580 Descending FAA TRACON SMA TRACON (SMA)
07:34PM 33.3775 -96.4356 224° Southwest 421 484 15,600 -2,400 Descending FAA TRACON SMA TRACON (SMA)
07:34PM 33.3206 -96.5014 224° Southwest 410 472 14,000 -2,280 Descending FAA TRACON SMA TRACON (SMA)
07:35PM 33.2714 -96.5586 224° Southwest 400 460 12,600 -2,220 Descending FAA TRACON SMA TRACON (SMA)
07:36PM 33.2169 -96.6206 225° Southwest 389 448 11,100 -1,200 Descending FAA TRACON SMA TRACON (SMA)
07:36PM 33.1644 -96.6822 224° Southwest 382 440 11,000 -120 Descending FAA TRACON SMA TRACON (SMA)
07:37PM 33.1178 -96.7364 224° Southwest 379 436 11,000  Level FAA TRACON SMA TRACON (SMA)
07:38PM 33.0656 -96.7967 224° Southwest 379 436 11,000  Level FAA TRACON SMA TRACON (SMA)
07:38PM 33.0183 -96.8514 224° Southwest 334 384 11,000  Level FAA TRACON SMA TRACON (SMA)
07:39PM 32.9822 -96.8931 186° South 291 335 11,000 -120 Level FAA TRACON SMA TRACON (SMA)
07:40PM 32.9303 -96.8997 180° South 277 319 10,900 -840 Descending FAA TRACON SMA TRACON (SMA)
07:40PM 32.8767 -96.8994 182° South 275 316 9,900 -1,380 Descending FAA TRACON SMA TRACON (SMA)
07:41PM 32.8261 -96.9011 182° South 260 299 9,000 -1,500 Descending FAA TRACON SMA TRACON (SMA)
07:42PM 32.7850 -96.9031 182° South 236 272 7,900 -1,740 Descending FAA TRACON SMA TRACON (SMA)
07:42PM 32.7403 -96.9047 205° Southwest 233 268 6,800 -1,560 Descending FAA TRACON SMA TRACON (SMA)
07:43PM 32.7078 -96.9231 287° West 224 258 5,900 -1,860 Descending FAA TRACON SMA TRACON (SMA)
07:44PM 32.7183 -96.9636 328° Northwest 216 249 4,400 -1,980 Descending FAA TRACON SMA TRACON (SMA)
07:44PM 32.7481 -96.9856 328° Northwest 206 237 3,300 -1,620 Descending FAA TRACON SMA TRACON (SMA)